createdAt,value
2018-06-02T05:23:48.628Z,27.99
2018-06-02T05:26:16.030Z,29.08
2018-06-02T05:28:44.385Z,29.06
2018-06-02T05:31:12.149Z,29.72
2018-06-02T05:33:39.675Z,29.37
2018-06-02T05:36:28.088Z,29.12
2018-06-02T05:38:55.477Z,29.45
2018-06-02T05:41:22.873Z,28.78
2018-06-02T05:43:50.264Z,28.86
2018-06-02T05:46:19.428Z,28.46
2018-06-02T05:48:46.825Z,28.73
2018-06-02T05:51:14.225Z,28.02
2018-06-02T05:53:47.330Z,28.72
2018-06-02T05:56:14.727Z,28.61
2018-06-02T05:58:42.274Z,29.22
2018-06-02T06:01:09.660Z,28.62
2018-06-02T06:03:37.053Z,28.26
2018-06-02T06:06:05.201Z,27.62
2018-06-02T06:08:32.681Z,26.46
2018-06-02T06:11:00.448Z,26.88
2018-06-02T06:13:27.848Z,27.75
2018-06-02T06:15:55.238Z,28.41
2018-06-02T06:18:23.377Z,28.54
2018-06-02T06:20:50.784Z,25.41
2018-06-02T06:23:18.179Z,25.17
2018-06-02T06:25:45.564Z,24.35
2018-06-02T06:28:13.461Z,23.74
2018-06-02T06:30:40.857Z,23.67
2018-06-02T06:33:09.887Z,23.30
2018-06-02T06:44:45.599Z,21.93
2018-06-02T06:47:13.013Z,22.24
2018-06-02T06:52:29.595Z,22.68
2018-06-02T06:54:57.027Z,22.54
2018-06-02T06:57:24.438Z,22.65
2018-06-02T06:59:51.842Z,22.46
2018-06-02T07:02:19.245Z,21.99
2018-06-02T07:13:54.990Z,21.70
2018-06-02T07:16:22.395Z,21.51
2018-06-02T07:21:42.024Z,21.79
2018-06-02T07:24:09.447Z,21.98
2018-06-02T07:26:36.854Z,22.17
2018-06-02T07:29:14.055Z,22.01
2018-06-02T07:31:41.526Z,21.83
2018-06-02T07:34:12.345Z,21.31
2018-06-02T07:36:39.771Z,21.56
2018-06-02T07:39:07.176Z,21.52
2018-06-02T07:41:34.595Z,21.78
2018-06-02T07:44:02.014Z,22.04
2018-06-02T07:46:29.406Z,22.27
2018-06-02T07:48:56.815Z,22.41
2018-06-02T07:51:24.237Z,22.47
2018-06-02T07:53:51.647Z,22.58
2018-06-02T07:56:19.041Z,22.14
2018-06-02T07:58:46.960Z,22.53
2018-06-02T08:01:14.358Z,22.59
2018-06-02T08:03:41.749Z,22.69
2018-06-02T08:06:09.137Z,22.77
2018-06-02T08:08:36.605Z,22.83
2018-06-02T08:11:03.942Z,22.96
2018-06-02T08:13:31.888Z,23.11
2018-06-02T08:15:59.272Z,23.16
2018-06-02T08:18:26.678Z,22.88
2018-06-02T08:20:54.071Z,22.92
2018-06-02T08:23:21.473Z,22.90
2018-06-02T08:25:48.868Z,22.94
2018-06-02T08:28:16.261Z,23.15
2018-06-02T08:30:43.656Z,22.89
2018-06-02T08:33:11.113Z,22.97
2018-06-02T08:35:38.515Z,23.22
2018-06-02T08:38:05.925Z,23.11
2018-06-02T08:40:33.335Z,23.56
2018-06-02T08:43:00.732Z,23.57
2018-06-02T08:45:28.141Z,23.76
2018-06-02T08:47:55.534Z,23.58
2018-06-02T08:50:22.935Z,23.49
2018-06-02T08:52:50.328Z,23.34
2018-06-02T08:55:17.755Z,22.95
2018-06-02T08:57:45.136Z,23.25
2018-06-02T09:00:12.576Z,23.13
2018-06-02T09:02:40.337Z,23.09
2018-06-02T09:05:07.755Z,23.24
2018-06-02T09:07:35.193Z,23.48
2018-06-02T09:10:02.601Z,23.48
2018-06-02T09:12:29.988Z,23.33
2018-06-02T09:14:57.397Z,23.45
2018-06-02T09:17:24.789Z,23.07
2018-06-02T09:19:52.205Z,23.25
2018-06-02T09:22:20.530Z,23.02
2018-06-02T09:27:40.477Z,23.35
2018-06-02T09:30:07.875Z,23.41
2018-06-02T09:32:35.260Z,23.53
2018-06-02T09:35:02.718Z,24.05
2018-06-02T09:37:30.058Z,23.31
2018-06-02T09:39:57.456Z,23.46
2018-06-02T09:42:24.854Z,23.60
2018-06-02T09:44:52.249Z,23.60
2018-06-02T09:47:19.653Z,23.65
2018-06-02T09:49:47.041Z,23.59
2018-06-02T09:52:14.441Z,23.55
2018-06-02T09:54:41.827Z,23.70
2018-06-02T09:57:09.216Z,23.35
2018-06-02T09:59:36.609Z,23.39
2018-06-02T10:02:04.012Z,23.44
2018-06-02T10:04:31.421Z,23.04
2018-06-02T10:06:58.817Z,23.08
2018-06-02T10:09:26.205Z,22.66
2018-06-02T10:11:53.624Z,22.68
2018-06-02T10:14:21.007Z,23.09
2018-06-02T10:16:48.405Z,23.18
2018-06-02T10:19:16.134Z,23.46
2018-06-02T10:21:43.532Z,23.39
2018-06-02T10:24:11.422Z,23.52
2018-06-02T10:26:38.818Z,23.33
2018-06-02T10:29:06.481Z,23.23
2018-06-02T10:31:33.898Z,23.46
2018-06-02T10:34:01.321Z,23.62
2018-06-02T10:36:28.718Z,23.58
2018-06-02T10:38:56.113Z,23.69
2018-06-02T10:41:24.980Z,23.81
2018-06-02T10:43:52.385Z,23.93
2018-06-02T10:46:19.780Z,24.04
2018-06-02T10:48:47.183Z,24.07
2018-06-02T10:51:15.354Z,24.33
2018-06-02T10:53:42.741Z,24.56
2018-06-02T10:56:10.141Z,24.36
2018-06-02T10:58:37.885Z,24.48
2018-06-02T11:01:05.264Z,24.51
2018-06-02T11:03:32.931Z,24.03
2018-06-02T11:06:00.889Z,24.18
2018-06-02T11:08:28.300Z,24.48
2018-06-02T11:10:55.804Z,24.65
2018-06-02T11:13:23.201Z,24.92
2018-06-02T11:15:50.608Z,25.17
2018-06-02T11:18:18.012Z,24.82
2018-06-02T11:20:45.400Z,24.97
2018-06-02T11:23:12.807Z,25.20
2018-06-02T11:25:40.220Z,25.50
2018-06-02T11:28:07.614Z,25.62
2018-06-02T11:30:35.011Z,25.20
2018-06-02T11:33:02.417Z,24.54
2018-06-02T11:35:29.825Z,24.48
2018-06-02T11:37:57.221Z,24.67
2018-06-02T11:40:24.678Z,24.59
2018-06-02T11:42:52.084Z,24.80
2018-06-02T11:45:19.483Z,24.82
2018-06-02T11:47:46.872Z,24.89
2018-06-02T11:50:14.275Z,24.99
2018-06-02T11:52:41.673Z,25.16
2018-06-02T11:55:09.126Z,24.86
2018-06-02T11:57:36.525Z,24.94
2018-06-02T12:00:03.921Z,25.10
2018-06-02T12:02:31.309Z,25.22
2018-06-02T12:04:58.721Z,25.27
2018-06-02T12:07:26.896Z,25.27
2018-06-02T12:09:54.365Z,24.73
2018-06-02T12:12:21.758Z,25.05
2018-06-02T12:14:49.161Z,25.32
2018-06-02T12:17:16.553Z,25.15
2018-06-02T12:19:43.968Z,25.19
2018-06-02T12:22:11.373Z,25.34
2018-06-02T12:24:38.797Z,25.36
2018-06-02T12:27:06.218Z,25.16
2018-06-02T12:29:33.995Z,25.43
2018-06-02T12:32:01.399Z,25.00
2018-06-02T12:34:28.792Z,25.24
2018-06-02T12:36:56.189Z,25.23
2018-06-02T12:39:23.589Z,25.27
2018-06-02T12:41:51.003Z,25.42
2018-06-02T12:44:18.492Z,25.67
2018-06-02T12:46:45.933Z,24.95
2018-06-02T12:49:13.363Z,25.39
2018-06-02T12:51:40.789Z,25.47
2018-06-02T12:54:08.216Z,25.75
2018-06-02T12:56:35.613Z,24.86
2018-06-02T12:59:03.021Z,24.83
2018-06-02T13:01:30.426Z,25.05
2018-06-02T13:03:58.134Z,24.78
2018-06-02T13:06:25.521Z,24.70
2018-06-02T13:08:52.929Z,24.51
2018-06-02T13:11:20.316Z,24.96
2018-06-02T13:13:48.737Z,25.11
2018-06-02T13:16:16.141Z,24.87
2018-06-02T13:18:43.525Z,24.78
2018-06-02T13:21:10.972Z,24.82
2018-06-02T13:23:38.350Z,25.33
2018-06-02T13:26:05.754Z,25.22
2018-06-02T13:28:33.148Z,25.18
2018-06-02T13:31:00.608Z,25.04
2018-06-02T13:33:28.014Z,24.73
2018-06-02T13:35:55.636Z,24.48
2018-06-02T13:38:23.117Z,24.32
2018-06-02T13:40:50.811Z,23.86
2018-06-02T13:43:18.207Z,24.28
2018-06-02T13:45:45.604Z,24.57
2018-06-02T13:48:12.994Z,24.14
2018-06-02T13:50:40.488Z,24.56
2018-06-02T13:53:07.949Z,24.49
2018-06-02T13:55:35.346Z,24.93
2018-06-02T13:58:02.749Z,24.98
2018-06-02T14:00:30.833Z,25.14
2018-06-02T14:02:58.243Z,25.48
2018-06-02T14:05:25.638Z,24.84
2018-06-02T14:07:53.029Z,25.07
2018-06-02T14:10:20.433Z,24.76
2018-06-02T14:12:47.830Z,24.93
2018-06-02T14:15:15.240Z,25.25
2018-06-02T14:17:42.632Z,25.06
2018-06-02T14:20:10.391Z,25.34
2018-06-02T14:22:37.798Z,25.57
2018-06-02T14:25:05.551Z,25.28
2018-06-02T14:27:33.009Z,24.85
2018-06-02T14:30:00.397Z,24.85
2018-06-02T14:32:27.866Z,24.48
2018-06-02T14:34:55.292Z,24.22
2018-06-02T14:37:24.340Z,24.72
2018-06-02T14:39:51.740Z,25.30
2018-06-02T14:42:19.192Z,25.12
2018-06-02T14:44:46.937Z,25.11
2018-06-02T14:47:15.572Z,25.68
2018-06-02T14:49:42.962Z,26.02
2018-06-02T14:52:10.509Z,26.47
2018-06-02T14:54:37.905Z,26.63
2018-06-02T14:57:05.311Z,26.95
2018-06-02T14:59:33.593Z,26.82
2018-06-02T15:02:01.007Z,26.83
2018-06-02T15:04:28.761Z,26.17
2018-06-02T15:06:56.378Z,25.85
2018-06-02T15:09:23.989Z,25.94
2018-06-02T15:11:51.385Z,25.97
2018-06-02T15:14:18.789Z,26.56
2018-06-02T15:16:46.199Z,26.56
2018-06-02T15:19:13.621Z,26.07
2018-06-02T15:21:41.743Z,25.90
2018-06-02T15:24:09.154Z,25.83
2018-06-02T15:26:36.616Z,26.06
2018-06-02T15:29:04.034Z,26.10
2018-06-02T15:31:31.769Z,26.30
2018-06-02T15:33:59.189Z,25.65
2018-06-02T15:36:26.724Z,25.64
2018-06-02T15:38:54.133Z,25.53
2018-06-02T15:41:21.520Z,25.63
2018-06-02T15:43:48.925Z,25.71
2018-06-02T15:46:16.379Z,25.41
2018-06-02T15:48:43.874Z,25.66
2018-06-02T15:51:11.339Z,25.95
2018-06-02T15:53:38.755Z,25.68
2018-06-02T15:56:06.145Z,25.90
2018-06-02T15:58:34.314Z,26.16
2018-06-02T16:01:01.697Z,26.31
2018-06-02T16:03:29.143Z,26.52
2018-06-02T16:05:56.501Z,26.58
2018-06-02T16:08:23.920Z,26.52
2018-06-02T16:10:51.346Z,26.16
2018-06-02T16:13:18.879Z,26.28
2018-06-02T16:15:46.276Z,26.26
2018-06-02T16:18:13.684Z,25.72
2018-06-02T16:20:41.114Z,25.39
2018-06-02T16:23:08.501Z,25.08
2018-06-02T16:25:35.893Z,25.25
2018-06-02T16:28:03.324Z,25.46
2018-06-02T16:30:30.722Z,25.88
2018-06-02T16:32:58.197Z,26.28
2018-06-02T16:35:25.592Z,26.29
2018-06-02T16:37:53.020Z,26.13
2018-06-02T16:40:20.418Z,26.22
2018-06-02T16:42:47.808Z,26.45
2018-06-02T16:45:15.201Z,26.29
2018-06-02T16:47:43.166Z,26.43
2018-06-02T16:50:10.569Z,26.68
2018-06-02T16:52:38.823Z,26.72
2018-06-02T16:55:06.233Z,27.14
2018-06-02T16:57:33.634Z,27.02
2018-06-02T17:00:01.034Z,27.72
2018-06-02T17:02:28.753Z,27.32
2018-06-02T17:04:56.164Z,27.66
2018-06-02T17:07:23.560Z,27.77
2018-06-02T17:09:50.962Z,27.96
2018-06-02T17:12:18.360Z,28.25
2018-06-02T17:14:45.763Z,27.97
2018-06-02T17:17:13.174Z,27.02
2018-06-02T17:19:41.457Z,27.56
2018-06-02T17:22:09.206Z,27.54
2018-06-02T17:24:37.075Z,26.88
2018-06-02T17:27:04.464Z,26.96
2018-06-02T17:29:31.870Z,27.34
2018-06-02T17:31:59.262Z,26.64
2018-06-02T17:34:26.684Z,27.08
2018-06-02T17:36:59.578Z,27.07
2018-06-02T17:39:26.974Z,27.11
2018-06-02T17:41:54.464Z,26.97
2018-06-02T17:44:21.880Z,26.26
2018-06-02T17:46:49.259Z,26.34
2018-06-02T17:49:16.645Z,26.50
2018-06-02T17:51:44.617Z,25.88
2018-06-02T17:54:12.009Z,25.42
2018-06-02T17:56:39.409Z,25.16
2018-06-02T17:59:06.834Z,25.02
2018-06-02T18:01:34.460Z,24.55
2018-06-02T18:04:01.845Z,24.19
2018-06-02T18:06:29.366Z,23.97
2018-06-02T18:08:56.757Z,23.90
2018-06-02T18:11:24.170Z,23.75
2018-06-02T18:13:51.566Z,23.54
2018-06-02T18:16:19.009Z,23.39
2018-06-02T18:18:46.401Z,23.31
2018-06-02T18:21:13.851Z,23.27
2018-06-02T18:23:41.233Z,23.01
2018-06-02T18:26:09.387Z,22.82
2018-06-02T18:28:36.788Z,22.81
2018-06-02T18:31:04.180Z,22.74
2018-06-02T18:36:05.399Z,22.60
2018-06-02T18:38:32.825Z,22.43
2018-06-02T18:41:00.235Z,22.40
2018-06-02T18:43:27.613Z,22.31
2018-06-02T18:45:55.019Z,22.27
2018-06-02T18:48:22.401Z,22.14
2018-06-02T18:50:49.808Z,22.22
2018-06-02T18:53:17.217Z,22.06
2018-06-02T18:55:44.603Z,22.01
2018-06-02T18:58:12.004Z,21.87
2018-06-02T19:00:39.396Z,21.82
2018-06-02T19:03:06.800Z,21.76
2018-06-02T19:05:34.194Z,21.70
2018-06-02T19:08:01.589Z,21.63
2018-06-02T19:10:28.985Z,21.59
2018-06-02T19:12:56.393Z,21.53
2018-06-02T19:15:23.850Z,21.44
2018-06-02T19:17:51.191Z,21.33
2018-06-02T19:20:18.590Z,21.27
2018-06-02T19:22:45.996Z,21.22
2018-06-02T19:25:13.385Z,21.09
2018-06-02T19:27:41.538Z,21.03
2018-06-02T19:30:08.908Z,21.01
2018-06-02T19:32:36.328Z,20.87
2018-06-02T19:35:03.727Z,20.73
2018-06-02T19:37:31.124Z,20.67
2018-06-02T19:39:58.519Z,20.61
2018-06-02T19:42:25.922Z,20.58
2018-06-02T19:44:53.326Z,20.49
2018-06-02T19:47:20.708Z,20.46
2018-06-02T19:49:48.092Z,20.38
2018-06-02T19:52:15.501Z,20.31
2018-06-02T19:54:42.893Z,20.30
2018-06-02T19:57:10.305Z,20.26
2018-06-02T19:59:38.594Z,20.16
2018-06-02T20:02:06.002Z,20.04
2018-06-02T20:04:33.396Z,19.99
2018-06-02T20:07:00.868Z,19.99
2018-06-02T20:09:28.341Z,19.96
2018-06-02T20:11:55.724Z,19.84
2018-06-02T20:14:23.138Z,19.76
2018-06-02T20:16:50.528Z,19.74
2018-06-02T20:19:17.945Z,19.58
2018-06-02T20:21:45.324Z,19.51
2018-06-02T20:24:13.609Z,19.49
2018-06-02T20:26:41.011Z,19.51
2018-06-02T20:29:08.408Z,19.55
2018-06-02T20:31:35.856Z,19.55
2018-06-02T20:34:04.021Z,19.49
2018-06-02T20:36:31.414Z,19.43
2018-06-02T20:39:00.241Z,19.33
2018-06-02T20:41:27.629Z,19.16
2018-06-02T20:43:55.029Z,19.06
2018-06-02T20:46:22.424Z,19.07
2018-06-02T20:48:49.821Z,19.11
2018-06-02T20:51:17.217Z,19.02
2018-06-02T20:53:44.735Z,18.91
2018-06-02T20:56:12.115Z,18.88
2018-06-02T20:58:39.517Z,18.84
2018-06-02T21:01:07.246Z,18.86
2018-06-02T21:03:34.641Z,18.76
2018-06-02T21:06:02.037Z,18.66
2018-06-02T21:08:38.313Z,18.63
2018-06-02T21:11:05.767Z,18.54
2018-06-02T21:13:33.164Z,18.54
2018-06-02T21:16:00.556Z,18.52
2018-06-02T21:18:27.949Z,18.52
2018-06-02T21:20:55.336Z,18.39
2018-06-02T21:23:22.724Z,18.34
2018-06-02T21:25:50.131Z,18.30
2018-06-02T21:28:17.525Z,18.22
2018-06-02T21:30:44.936Z,18.12
2018-06-02T21:33:13.144Z,18.08
2018-06-02T21:35:40.536Z,18.16
2018-06-02T21:38:07.928Z,18.18
2018-06-02T21:40:35.335Z,18.18
2018-06-02T21:43:02.733Z,18.15
2018-06-02T21:45:30.176Z,18.12
2018-06-02T21:47:57.576Z,18.03
2018-06-02T21:50:24.969Z,18.05
2018-06-02T21:52:52.361Z,17.94
2018-06-02T21:55:19.786Z,17.88
2018-06-02T21:57:47.149Z,17.86
2018-06-02T22:03:18.747Z,17.51
2018-06-02T22:05:46.849Z,17.40
2018-06-02T22:08:15.016Z,17.30
2018-06-02T22:10:43.133Z,17.24
2018-06-02T22:13:11.301Z,17.11
2018-06-02T22:15:39.408Z,17.02
2018-06-02T22:18:07.557Z,16.93
2018-06-02T22:20:35.732Z,16.91
2018-06-02T22:23:03.892Z,16.91
2018-06-02T22:25:32.308Z,16.78
2018-06-02T22:28:00.433Z,16.86
2018-06-02T22:30:28.531Z,16.85
2018-06-02T22:32:57.816Z,16.95
2018-06-02T22:35:25.904Z,16.89
2018-06-02T22:37:54.013Z,16.82
2018-06-02T22:40:22.413Z,16.84
2018-06-02T22:42:50.511Z,16.76
2018-06-02T22:45:18.897Z,16.81
2018-06-02T22:47:47.538Z,16.85
2018-06-02T22:50:17.121Z,16.81
2018-06-02T22:52:45.209Z,16.68
2018-06-02T22:55:13.461Z,16.59
2018-06-02T22:57:41.556Z,16.52
2018-06-02T23:00:10.608Z,16.45
2018-06-02T23:02:38.695Z,16.39
2018-06-02T23:05:07.768Z,16.33
2018-06-02T23:07:35.885Z,16.32
2018-06-02T23:10:03.990Z,16.34
2018-06-02T23:12:32.081Z,16.35
2018-06-02T23:15:00.156Z,16.33
2018-06-02T23:17:28.531Z,16.30
2018-06-02T23:19:56.903Z,16.34
2018-06-02T23:22:36.252Z,16.48
2018-06-02T23:25:04.769Z,16.59
2018-06-02T23:27:32.976Z,16.42
2018-06-02T23:30:01.044Z,16.30
2018-06-02T23:32:29.207Z,16.30
2018-06-02T23:34:57.285Z,16.14
2018-06-02T23:37:25.399Z,16.10
2018-06-02T23:39:53.569Z,16.17
2018-06-02T23:42:22.381Z,16.11
2018-06-02T23:44:50.475Z,16.08
2018-06-02T23:47:18.825Z,16.11
2018-06-02T23:49:47.629Z,16.26
2018-06-02T23:52:15.789Z,16.31
2018-06-02T23:54:43.865Z,16.27
2018-06-02T23:57:11.980Z,16.10
2018-06-02T23:59:40.197Z,15.89
